createdAt,value
2018-04-01T00:00:12.492Z,4.40
2018-04-01T00:02:40.088Z,4.40
2018-04-01T00:05:07.130Z,4.30
2018-04-01T00:07:34.564Z,4.40
2018-04-01T00:10:01.521Z,4.40
2018-04-01T00:12:36.311Z,4.50
2018-04-01T00:15:03.297Z,4.50
2018-04-01T00:17:30.265Z,4.50
2018-04-01T00:19:57.508Z,4.40
2018-04-01T00:22:24.493Z,4.40
2018-04-01T00:24:52.229Z,4.40
2018-04-01T00:27:23.436Z,4.40
2018-04-01T00:29:51.113Z,4.30
2018-04-01T00:32:19.013Z,4.30
2018-04-01T00:34:46.765Z,4.30
2018-04-01T00:37:13.749Z,4.30
2018-04-01T00:39:40.715Z,4.30
2018-04-01T00:42:08.048Z,4.30
2018-04-01T00:44:35.052Z,4.30
2018-04-01T00:47:02.454Z,4.20
2018-04-01T00:49:29.405Z,4.10
2018-04-01T00:51:57.825Z,4.20
2018-04-01T00:54:24.803Z,4.10
2018-04-01T00:56:51.772Z,4.20
2018-04-01T00:59:25.749Z,4.20
2018-04-01T01:01:52.748Z,4.20
2018-04-01T01:04:19.717Z,4.20
2018-04-01T01:06:46.701Z,4.30
2018-04-01T01:09:14.452Z,4.40
2018-04-01T01:11:41.412Z,4.40
2018-04-01T01:14:08.369Z,4.40
2018-04-01T01:16:35.736Z,4.50
2018-04-01T01:19:02.713Z,4.50
2018-04-01T01:21:29.795Z,4.50
2018-04-01T01:23:56.781Z,4.50
2018-04-01T01:26:24.362Z,4.50
2018-04-01T01:28:54.904Z,4.40
2018-04-01T01:31:21.871Z,4.30
2018-04-01T01:33:48.906Z,4.30
2018-04-01T01:36:15.866Z,4.20
2018-04-01T01:38:43.185Z,4.00
2018-04-01T01:41:10.197Z,3.90
2018-04-01T01:43:37.644Z,3.80
2018-04-01T01:46:04.608Z,3.60
2018-04-01T01:48:32.201Z,3.60
2018-04-01T01:50:59.161Z,3.50
2018-04-01T01:53:27.465Z,3.50
2018-04-01T01:55:55.188Z,3.40
2018-04-01T01:58:22.169Z,3.40
2018-04-01T02:00:49.117Z,3.50
2018-04-01T02:03:16.093Z,3.60
2018-04-01T02:05:43.081Z,3.70
2018-04-01T02:08:10.108Z,3.90
2018-04-01T02:10:37.069Z,4.20
2018-04-01T02:13:04.694Z,4.40
2018-04-01T02:15:34.561Z,4.60
2018-04-01T02:18:01.537Z,4.80
2018-04-01T02:20:29.061Z,5.00
2018-04-01T02:22:56.184Z,5.20
2018-04-01T02:25:23.681Z,5.40
2018-04-01T02:27:50.817Z,5.50
2018-04-01T02:30:21.940Z,5.60
2018-04-01T02:32:50.283Z,5.60
2018-04-01T02:35:17.244Z,5.60
2018-04-01T02:37:44.309Z,5.70
2018-04-01T02:40:11.293Z,5.70
2018-04-01T02:42:39.009Z,5.70
2018-04-01T02:45:10.067Z,5.70
2018-04-01T02:47:37.013Z,5.80
2018-04-01T02:50:03.986Z,5.80
2018-04-01T02:52:31.273Z,5.80
2018-04-01T02:54:58.263Z,5.80
2018-04-01T02:57:25.231Z,5.80
2018-04-01T02:59:52.194Z,5.80
2018-04-01T03:02:19.241Z,5.90
2018-04-01T03:04:46.186Z,5.90
2018-04-01T03:07:13.161Z,6.00
2018-04-01T03:09:40.164Z,6.00
2018-04-01T03:12:07.929Z,6.00
2018-04-01T03:14:35.662Z,6.00
2018-04-01T03:17:06.255Z,6.00
2018-04-01T03:19:33.197Z,6.10
2018-04-01T03:22:00.146Z,6.10
2018-04-01T03:24:27.125Z,6.10
2018-04-01T03:26:54.129Z,6.00
2018-04-01T03:29:21.081Z,6.00
2018-04-01T03:31:49.400Z,6.00
2018-04-01T03:34:16.350Z,6.00
2018-04-01T03:36:43.582Z,6.00
2018-04-01T03:39:10.535Z,6.00
2018-04-01T03:41:38.516Z,6.00
2018-04-01T03:44:05.495Z,6.00
2018-04-01T03:46:32.445Z,6.00
2018-04-01T03:48:59.649Z,6.00
2018-04-01T03:51:26.617Z,6.00
2018-04-01T03:53:54.381Z,6.10
2018-04-01T03:56:22.120Z,6.10
2018-04-01T03:58:49.473Z,6.10
2018-04-01T04:01:16.438Z,6.10
2018-04-01T04:03:43.389Z,6.10
2018-04-01T04:06:11.143Z,6.10
2018-04-01T04:08:38.114Z,6.10
2018-04-01T04:11:05.597Z,6.20
2018-04-01T04:13:32.548Z,6.20
2018-04-01T04:16:02.833Z,6.20
2018-04-01T04:18:29.786Z,6.20
2018-04-01T04:20:56.781Z,6.20
2018-04-01T04:23:23.750Z,6.20
2018-04-01T04:25:50.720Z,6.20
2018-04-01T04:28:18.065Z,6.30
2018-04-01T04:30:45.050Z,6.30
2018-04-01T04:33:12.804Z,6.30
2018-04-01T04:35:39.892Z,6.30
2018-04-01T04:38:07.981Z,6.30
2018-04-01T04:40:34.974Z,6.30
2018-04-01T04:43:01.945Z,6.30
2018-04-01T04:45:28.893Z,6.30
2018-04-01T04:47:59.841Z,6.40
2018-04-01T04:50:26.796Z,6.30
2018-04-01T04:52:53.841Z,6.40
2018-04-01T04:55:20.821Z,6.40
2018-04-01T04:57:47.912Z,6.50
2018-04-01T05:00:15.165Z,6.50
2018-04-01T05:02:42.135Z,6.50
2018-04-01T05:05:09.612Z,6.50
2018-04-01T05:07:36.726Z,6.50
2018-04-01T05:10:04.154Z,6.50
2018-04-01T05:12:31.108Z,6.50
2018-04-01T05:14:58.657Z,6.50
2018-04-01T05:17:26.558Z,6.60
2018-04-01T05:19:53.532Z,6.50
2018-04-01T05:22:21.253Z,6.60
2018-04-01T05:24:48.265Z,6.60
2018-04-01T05:27:15.227Z,6.60
2018-04-01T05:29:42.172Z,6.60
2018-04-01T05:32:12.816Z,6.50
2018-04-01T05:34:40.556Z,6.50
2018-04-01T05:37:08.081Z,6.50
2018-04-01T05:39:35.059Z,6.50
2018-04-01T05:42:02.016Z,6.50
2018-04-01T05:44:28.997Z,6.50
2018-04-01T05:46:56.173Z,6.60
2018-04-01T05:49:27.348Z,6.60
2018-04-01T05:51:54.339Z,6.60
2018-04-01T05:54:21.298Z,6.60
2018-04-01T05:56:48.304Z,6.60
2018-04-01T05:59:15.477Z,6.60
2018-04-01T06:01:43.957Z,6.70
2018-04-01T06:04:11.265Z,6.70
2018-04-01T06:06:38.245Z,6.70
2018-04-01T06:09:05.201Z,6.70
2018-04-01T06:11:32.181Z,6.70
2018-04-01T06:13:59.140Z,6.70
2018-04-01T06:16:26.123Z,6.70
2018-04-01T06:18:53.095Z,6.70
2018-04-01T06:21:20.136Z,6.70
2018-04-01T06:23:47.430Z,6.80
2018-04-01T06:26:14.428Z,6.70
2018-04-01T06:28:42.154Z,6.50
2018-04-01T06:31:09.101Z,6.60
2018-04-01T06:33:37.216Z,6.60
2018-04-01T06:36:04.192Z,6.60
2018-04-01T06:38:31.191Z,6.60
2018-04-01T06:40:58.181Z,6.60
2018-04-01T06:43:25.573Z,6.70
2018-04-01T06:45:52.524Z,6.80
2018-04-01T06:48:24.025Z,6.80
2018-04-01T06:50:50.987Z,6.80
2018-04-01T06:53:18.914Z,7.00
2018-04-01T06:55:45.892Z,7.00
2018-04-01T06:58:13.600Z,7.10
2018-04-01T07:00:40.569Z,7.10
2018-04-01T07:03:07.541Z,7.20
2018-04-01T07:05:34.656Z,7.20
2018-04-01T07:08:01.807Z,7.40
2018-04-01T07:10:28.789Z,7.40
2018-04-01T07:12:56.501Z,7.50
2018-04-01T07:15:23.485Z,7.50
2018-04-01T07:17:50.437Z,7.60
2018-04-01T07:20:17.388Z,7.90
2018-04-01T07:22:45.325Z,8.00
2018-04-01T07:25:12.301Z,8.00
2018-04-01T07:27:40.016Z,8.00
2018-04-01T07:30:06.973Z,8.00
2018-04-01T07:32:33.961Z,7.90
2018-04-01T07:35:01.107Z,7.80
2018-04-01T07:37:28.049Z,7.90
2018-04-01T07:39:55.265Z,7.80
2018-04-01T07:42:22.420Z,7.70
2018-04-01T07:44:49.520Z,7.60
2018-04-01T07:47:16.501Z,7.50
2018-04-01T07:49:44.043Z,7.60
2018-04-01T07:52:11.029Z,7.60
2018-04-01T07:54:38.825Z,7.70
2018-04-01T07:57:05.832Z,7.60
2018-04-01T07:59:33.820Z,7.70
2018-04-01T08:02:00.773Z,7.70
2018-04-01T08:04:27.741Z,7.70
2018-04-01T08:06:54.718Z,7.70
2018-04-01T08:09:22.790Z,7.50
2018-04-01T08:11:49.763Z,7.50
2018-04-01T08:14:16.760Z,7.50
2018-04-01T08:16:43.709Z,7.50
2018-04-01T08:19:10.993Z,7.60
2018-04-01T08:21:37.966Z,7.90
2018-04-01T08:24:06.308Z,7.80
2018-04-01T08:26:33.285Z,7.80
2018-04-01T08:29:00.224Z,7.80
2018-04-01T08:31:27.221Z,7.90
2018-04-01T08:33:54.820Z,8.00
2018-04-01T08:36:21.768Z,8.00
2018-04-01T08:38:49.021Z,8.10
2018-04-01T08:41:15.976Z,8.20
2018-04-01T08:43:43.738Z,8.30
2018-04-01T08:46:10.739Z,8.30
2018-04-01T08:48:38.108Z,8.20
2018-04-01T08:51:05.136Z,8.40
2018-04-01T08:53:32.517Z,8.60
2018-04-01T08:55:59.478Z,8.60
2018-04-01T08:58:26.933Z,8.70
2018-04-01T09:00:54.073Z,8.80
2018-04-01T09:03:22.258Z,8.90
2018-04-01T09:05:49.305Z,8.90
2018-04-01T09:08:16.288Z,8.90
2018-04-01T09:10:44.016Z,9.10
2018-04-01T09:13:10.971Z,9.10
2018-04-01T09:15:38.212Z,9.40
2018-04-01T09:18:05.190Z,9.50
2018-04-01T09:20:32.915Z,9.60
2018-04-01T09:22:59.884Z,9.60
2018-04-01T09:25:26.837Z,9.70
2018-04-01T09:27:54.023Z,10.00
2018-04-01T09:30:20.982Z,10.50
2018-04-01T09:32:49.304Z,10.40
2018-04-01T09:35:17.027Z,10.40
2018-04-01T09:37:43.993Z,10.40
2018-04-01T09:40:11.237Z,10.20
2018-04-01T09:42:38.184Z,9.80
2018-04-01T09:45:05.161Z,9.60
2018-04-01T09:47:32.112Z,9.40
2018-04-01T09:49:59.116Z,9.20
2018-04-01T09:52:26.549Z,9.20
2018-04-01T09:54:53.505Z,9.10
2018-04-01T09:57:21.281Z,9.20
2018-04-01T09:59:48.249Z,9.40
2018-04-01T10:02:16.505Z,9.60
2018-04-01T10:04:43.985Z,9.90
2018-04-01T10:07:11.637Z,10.00
2018-04-01T10:09:39.073Z,10.20
2018-04-01T10:12:06.568Z,9.70
2018-04-01T10:14:35.693Z,9.20
2018-04-01T10:17:03.160Z,9.20
2018-04-01T10:19:30.611Z,8.80
2018-04-01T10:22:01.966Z,7.70
2018-04-01T10:24:30.001Z,6.30
2018-04-01T10:26:57.437Z,5.70
2018-04-01T10:29:25.672Z,5.30
2018-04-01T10:31:53.125Z,5.30
2018-04-01T10:34:20.581Z,5.10
2018-04-01T10:36:48.181Z,5.10
2018-04-01T10:39:15.714Z,5.30
2018-04-01T10:41:43.365Z,5.40
2018-04-01T10:44:10.863Z,5.70
2018-04-01T10:46:38.319Z,6.10
2018-04-01T10:49:05.784Z,6.50
2018-04-01T10:51:33.232Z,6.70
2018-04-01T10:54:07.254Z,6.70
2018-04-01T10:56:34.262Z,6.90
2018-04-01T10:59:02.877Z,7.30
2018-04-01T11:01:29.826Z,7.20
2018-04-01T11:03:57.674Z,7.40
2018-04-01T11:06:25.422Z,7.80
2018-04-01T11:08:52.369Z,7.80
2018-04-01T11:11:19.346Z,8.20
2018-04-01T11:13:46.409Z,8.50
2018-04-01T11:16:14.136Z,9.10
2018-04-01T11:18:41.096Z,9.10
2018-04-01T11:21:08.835Z,8.70
2018-04-01T11:23:39.490Z,8.70
2018-04-01T11:26:06.539Z,8.60
2018-04-01T11:28:33.441Z,8.50
2018-04-01T11:31:00.416Z,8.40
2018-04-01T11:33:27.376Z,8.50
2018-04-01T11:35:54.488Z,8.50
2018-04-01T11:38:24.588Z,8.50
2018-04-01T11:40:51.569Z,8.50
2018-04-01T11:43:20.217Z,8.30
2018-04-01T11:45:47.217Z,8.20
2018-04-01T11:48:14.189Z,7.70
2018-04-01T11:50:41.937Z,7.10
2018-04-01T11:53:08.880Z,7.10
2018-04-01T11:55:36.825Z,6.80
2018-04-01T11:58:03.785Z,6.80
2018-04-01T12:00:30.777Z,6.60
2018-04-01T12:02:57.722Z,6.50
2018-04-01T12:05:24.681Z,6.40
2018-04-01T12:07:52.916Z,6.20
2018-04-01T12:10:20.860Z,6.30
2018-04-01T12:12:47.810Z,6.20
2018-04-01T12:15:16.667Z,6.40
2018-04-01T12:17:43.842Z,6.40
2018-04-01T12:20:11.900Z,6.10
2018-04-01T12:22:38.876Z,6.10
2018-04-01T12:25:05.855Z,6.10
2018-04-01T12:27:33.056Z,5.90
2018-04-01T12:30:00.056Z,5.70
2018-04-01T12:32:27.767Z,5.20
2018-04-01T12:34:54.761Z,5.20
2018-04-01T12:37:21.726Z,5.20
2018-04-01T12:39:49.372Z,5.20
2018-04-01T12:42:16.344Z,5.30
2018-04-01T12:44:44.021Z,5.40
2018-04-01T12:47:11.046Z,5.60
2018-04-01T12:49:38.089Z,5.80
2018-04-01T12:52:05.049Z,6.10
2018-04-01T12:54:37.150Z,6.40
2018-04-01T12:57:05.300Z,6.70
2018-04-01T12:59:33.646Z,6.60
2018-04-01T13:02:00.597Z,6.80
2018-04-01T13:04:28.400Z,7.30
2018-04-01T13:06:55.370Z,7.30
2018-04-01T13:09:22.589Z,7.30
2018-04-01T13:11:54.041Z,7.30
2018-04-01T13:14:20.994Z,7.50
2018-04-01T13:16:47.950Z,7.60
2018-04-01T13:19:14.929Z,8.00
2018-04-01T13:21:41.890Z,8.50
2018-04-01T13:24:08.869Z,9.10
2018-04-01T13:26:35.821Z,9.40
2018-04-01T13:29:02.799Z,9.20
2018-04-01T13:31:29.857Z,8.90
2018-04-01T13:33:56.814Z,8.80
2018-04-01T13:36:24.376Z,9.20
2018-04-01T13:38:51.322Z,9.20
2018-04-01T13:41:19.615Z,9.20
2018-04-01T13:43:47.209Z,9.20
2018-04-01T13:46:13.672Z,9.10
2018-04-01T13:48:40.624Z,8.70
2018-04-01T13:51:07.841Z,8.00
2018-04-01T13:53:34.785Z,6.20
2018-04-01T13:56:07.646Z,5.50
2018-04-01T13:58:34.805Z,5.50
2018-04-01T14:01:01.781Z,5.60
2018-04-01T14:03:29.490Z,5.70
2018-04-01T14:05:57.382Z,5.70
2018-04-01T14:08:24.377Z,5.90
2018-04-01T14:10:56.384Z,6.70
2018-04-01T14:13:23.407Z,6.70
2018-04-01T14:15:50.358Z,6.60
2018-04-01T14:18:17.333Z,6.60
2018-04-01T14:20:44.338Z,6.60
2018-04-01T14:23:11.293Z,7.00
2018-04-01T14:25:38.268Z,7.50
2018-04-01T14:28:05.797Z,7.90
2018-04-01T14:30:32.780Z,8.10
2018-04-01T14:33:01.133Z,8.00
2018-04-01T14:35:28.111Z,7.90
2018-04-01T14:37:55.090Z,7.70
2018-04-01T14:40:22.395Z,7.60
2018-04-01T14:42:50.060Z,7.50
2018-04-01T14:45:17.024Z,7.50
2018-04-01T14:47:43.973Z,7.50
2018-04-01T14:50:10.974Z,7.60
2018-04-01T14:52:38.237Z,7.80
2018-04-01T14:55:05.201Z,8.10
2018-04-01T14:57:32.688Z,8.30
2018-04-01T14:59:59.973Z,8.50
2018-04-01T15:02:28.147Z,8.70
2018-04-01T15:04:55.218Z,8.70
2018-04-01T15:07:22.189Z,8.70
2018-04-01T15:09:49.938Z,8.40
2018-04-01T15:12:16.890Z,8.40
2018-04-01T15:14:43.857Z,8.20
2018-04-01T15:17:12.494Z,7.70
2018-04-01T15:19:39.470Z,7.60
2018-04-01T15:22:06.480Z,7.40
2018-04-01T15:24:33.401Z,7.00
2018-04-01T15:27:00.358Z,6.60
2018-04-01T15:29:27.713Z,6.30
2018-04-01T15:31:54.698Z,6.30
2018-04-01T15:34:22.593Z,6.30
2018-04-01T15:36:49.550Z,6.30
2018-04-01T15:39:16.544Z,6.30
2018-04-01T15:41:43.489Z,6.40
2018-04-01T15:44:10.452Z,6.40
2018-04-01T15:46:37.764Z,6.50
2018-04-01T15:49:04.733Z,6.50
2018-04-01T15:51:31.715Z,6.50
2018-04-01T15:53:58.663Z,6.30
2018-04-01T15:56:26.401Z,6.10
2018-04-01T15:58:53.688Z,6.00
2018-04-01T16:01:20.722Z,5.80
2018-04-01T16:03:48.465Z,5.10
2018-04-01T16:06:15.414Z,5.10
2018-04-01T16:08:42.394Z,5.00
2018-04-01T16:11:09.623Z,4.90
2018-04-01T16:13:44.617Z,4.80
2018-04-01T16:16:11.597Z,4.80
2018-04-01T16:18:39.338Z,5.10
2018-04-01T16:21:06.366Z,5.00
2018-04-01T16:23:33.313Z,5.20
2018-04-01T16:26:00.265Z,5.40
2018-04-01T16:28:30.894Z,5.70
2018-04-01T16:30:57.848Z,5.90
2018-04-01T16:33:25.174Z,6.10
2018-04-01T16:35:52.134Z,6.20
2018-04-01T16:38:19.093Z,6.30
2018-04-01T16:40:46.345Z,6.40
2018-04-01T16:43:13.300Z,6.40
2018-04-01T16:45:40.269Z,6.40
2018-04-01T16:48:07.750Z,6.40
2018-04-01T16:50:34.739Z,6.40
2018-04-01T16:53:01.913Z,6.30
2018-04-01T16:55:29.666Z,6.10
2018-04-01T16:57:56.675Z,6.00
2018-04-01T17:00:23.620Z,6.00
2018-04-01T17:02:51.722Z,6.00
2018-04-01T17:05:18.695Z,5.90
2018-04-01T17:07:45.653Z,6.00
2018-04-01T17:10:12.742Z,6.00
2018-04-01T17:12:40.593Z,6.00
2018-04-01T17:15:07.565Z,6.00
2018-04-01T17:17:34.525Z,6.00
2018-04-01T17:20:01.662Z,6.00
2018-04-01T17:22:29.733Z,6.00
2018-04-01T17:24:56.712Z,6.00
2018-04-01T17:27:24.428Z,6.00
2018-04-01T17:29:54.867Z,6.00
2018-04-01T17:32:21.815Z,5.90
2018-04-01T17:34:49.153Z,5.90
2018-04-01T17:37:16.138Z,5.80
2018-04-01T17:39:43.864Z,5.80
2018-04-01T17:42:10.837Z,5.70
2018-04-01T17:44:42.057Z,5.70
2018-04-01T17:47:09.038Z,5.60
2018-04-01T17:49:37.761Z,5.60
2018-04-01T17:52:04.757Z,5.60
2018-04-01T17:54:31.795Z,5.60
2018-04-01T17:56:58.759Z,5.50
2018-04-01T17:59:34.593Z,5.20
2018-04-01T18:02:02.549Z,4.90
2018-04-01T18:04:29.522Z,4.80
2018-04-01T18:06:57.799Z,4.70
2018-04-01T18:09:24.775Z,4.60
2018-04-01T18:11:51.732Z,4.70
2018-04-01T18:14:18.700Z,4.80
2018-04-01T18:16:45.933Z,4.90
2018-04-01T18:19:12.893Z,5.00
2018-04-01T18:21:41.101Z,5.30
2018-04-01T18:24:08.077Z,5.30
2018-04-01T18:26:35.085Z,5.30
2018-04-01T18:29:02.057Z,5.20
2018-04-01T18:31:29.565Z,5.30
2018-04-01T18:33:56.512Z,5.30
2018-04-01T18:36:24.612Z,5.50
2018-04-01T18:38:51.565Z,5.50
2018-04-01T18:41:18.797Z,5.40
2018-04-01T18:43:45.750Z,5.40
2018-04-01T18:46:15.957Z,5.50
2018-04-01T18:48:43.349Z,5.70
2018-04-01T18:51:10.464Z,5.70
2018-04-01T18:53:37.887Z,5.60
2018-04-01T18:56:04.873Z,5.70
2018-04-01T18:58:32.337Z,5.60
2018-04-01T19:01:02.646Z,5.50
2018-04-01T19:03:29.573Z,5.50
2018-04-01T19:05:56.773Z,5.40
2018-04-01T19:08:23.749Z,5.40
2018-04-01T19:10:52.045Z,5.30
2018-04-01T19:13:19.057Z,5.30
2018-04-01T19:15:48.887Z,5.30
2018-04-01T19:18:17.369Z,5.30
2018-04-01T19:20:44.828Z,5.30
2018-04-01T19:23:12.314Z,5.30
2018-04-01T19:25:39.822Z,5.40
2018-04-01T19:28:07.321Z,5.40
2018-04-01T19:30:35.575Z,5.50
2018-04-01T19:33:03.000Z,5.60
2018-04-01T19:35:30.483Z,5.60
2018-04-01T19:37:57.917Z,5.50
2018-04-01T19:40:25.381Z,5.50
2018-04-01T19:42:52.861Z,5.50
2018-04-01T19:45:20.302Z,5.40
2018-04-01T19:47:47.742Z,5.40
2018-04-01T19:50:15.204Z,5.40
2018-04-01T19:52:42.921Z,5.40
2018-04-01T19:55:10.366Z,5.30
2018-04-01T19:57:38.273Z,5.30
2018-04-01T20:00:05.719Z,5.20
2018-04-01T20:02:33.145Z,5.20
2018-04-01T20:05:00.607Z,5.20
2018-04-01T20:07:28.082Z,5.20
2018-04-01T20:09:55.521Z,5.10
2018-04-01T20:12:23.262Z,5.10
2018-04-01T20:14:51.989Z,5.10
2018-04-01T20:17:23.137Z,5.20
2018-04-01T20:19:50.585Z,5.20
2018-04-01T20:22:18.145Z,5.20
2018-04-01T20:24:45.641Z,5.20
2018-04-01T20:27:13.492Z,5.20
2018-04-01T20:29:42.221Z,5.00
2018-04-01T20:32:13.090Z,5.00
2018-04-01T20:34:40.722Z,4.90
2018-04-01T20:37:08.194Z,4.80
2018-04-01T20:39:36.408Z,4.70
2018-04-01T20:42:03.885Z,4.70
2018-04-01T20:44:31.347Z,4.60
2018-04-01T20:46:58.784Z,4.60
2018-04-01T20:49:26.292Z,4.60
2018-04-01T20:51:53.737Z,4.70
2018-04-01T20:54:21.169Z,4.80
2018-04-01T20:56:48.650Z,4.90
2018-04-01T20:59:16.345Z,4.80
2018-04-01T21:01:43.786Z,4.90
2018-04-01T21:04:11.248Z,4.90
2018-04-01T21:06:38.717Z,5.00
2018-04-01T21:09:06.211Z,5.00
2018-04-01T21:11:34.412Z,5.00
2018-04-01T21:14:01.875Z,5.10
2018-04-01T21:16:29.313Z,5.10
2018-04-01T21:18:56.786Z,5.00
2018-04-01T21:21:24.255Z,5.00
2018-04-01T21:23:51.728Z,5.00
2018-04-01T21:26:19.287Z,4.90
2018-04-01T21:28:46.977Z,4.90
2018-04-01T21:31:14.438Z,4.90
2018-04-01T21:33:47.028Z,4.80
2018-04-01T21:36:14.471Z,4.90
2018-04-01T21:38:43.629Z,4.90
2018-04-01T21:41:11.069Z,4.90
2018-04-01T21:43:38.564Z,4.90
2018-04-01T21:46:05.998Z,5.00
2018-04-01T21:48:33.438Z,5.00
2018-04-01T21:51:00.913Z,5.00
2018-04-01T21:53:28.372Z,5.00
2018-04-01T21:55:55.853Z,4.90
2018-04-01T21:58:23.601Z,4.90
2018-04-01T22:00:52.297Z,4.90
2018-04-01T22:03:19.738Z,4.90
2018-04-01T22:05:47.204Z,4.90
2018-04-01T22:08:14.956Z,4.90
2018-04-01T22:10:42.412Z,4.90
2018-04-01T22:13:09.892Z,4.90
2018-04-01T22:15:38.841Z,5.00
2018-04-01T22:18:06.313Z,5.00
2018-04-01T22:20:33.785Z,5.00
2018-04-01T22:23:12.085Z,5.00
2018-04-01T22:25:39.574Z,5.00
2018-04-01T22:28:07.008Z,5.00
2018-04-01T22:30:34.545Z,5.10
2018-04-01T22:33:02.016Z,5.10
2018-04-01T22:35:29.458Z,5.20
2018-04-01T22:37:56.957Z,5.20
2018-04-01T22:40:26.112Z,5.30
2018-04-01T22:42:53.561Z,5.30
2018-04-01T22:45:21.242Z,5.30
2018-04-01T22:47:48.721Z,5.30
2018-04-01T22:50:23.870Z,5.30
2018-04-01T22:52:51.345Z,5.30
2018-04-01T22:55:18.942Z,5.40
2018-04-01T22:57:46.416Z,5.40
2018-04-01T23:00:13.869Z,5.30
2018-04-01T23:02:41.329Z,5.30
2018-04-01T23:05:12.601Z,5.30
2018-04-01T23:07:40.258Z,5.40
2018-04-01T23:10:07.709Z,5.40
2018-04-01T23:12:35.201Z,5.40
2018-04-01T23:15:03.421Z,5.40
2018-04-01T23:17:30.865Z,5.40
2018-04-01T23:20:01.338Z,5.50
2018-04-01T23:22:29.421Z,5.50
2018-04-01T23:24:56.911Z,5.50
2018-04-01T23:27:24.352Z,5.50
2018-04-01T23:29:51.953Z,5.60
2018-04-01T23:32:19.410Z,5.60
2018-04-01T23:34:46.993Z,5.60
2018-04-01T23:37:14.488Z,5.60
2018-04-01T23:39:42.083Z,5.60
2018-04-01T23:42:09.525Z,5.60
2018-04-01T23:44:38.046Z,5.70
2018-04-01T23:47:05.809Z,5.70
2018-04-01T23:49:33.252Z,5.70
2018-04-01T23:52:00.728Z,5.80
2018-04-01T23:54:28.168Z,5.70
2018-04-01T23:56:55.652Z,5.70
2018-04-01T23:59:23.262Z,5.60
